createdAt,value
2023-04-26T00:00:51.219Z,88.28
2023-04-26T00:03:17.840Z,88.90
2023-04-26T00:05:44.440Z,90.49
2023-04-26T00:08:10.811Z,91.94
2023-04-26T00:10:37.264Z,89.96
2023-04-26T00:13:03.808Z,92.02
2023-04-26T00:15:30.411Z,95.95
2023-04-26T00:17:57.121Z,90.61
2023-04-26T00:20:23.593Z,88.31
2023-04-26T00:22:50.012Z,87.88
2023-04-26T00:25:16.441Z,87.47
2023-04-26T00:27:42.880Z,88.03
2023-04-26T00:30:09.436Z,85.54
2023-04-26T00:32:36.330Z,83.26
2023-04-26T00:35:06.368Z,83.37
2023-04-26T00:37:32.803Z,84.74
2023-04-26T00:39:59.278Z,90.79
2023-04-26T00:42:27.166Z,91.87
2023-04-26T00:44:57.325Z,90.82
2023-04-26T00:47:29.570Z,89.31
2023-04-26T00:49:57.060Z,90.87
2023-04-26T00:52:24.039Z,91.95
2023-04-26T00:54:51.352Z,90.82
2023-04-26T00:57:17.760Z,97.81
2023-04-26T00:59:44.341Z,94.47
2023-04-26T01:02:10.966Z,98.38
2023-04-26T01:04:37.727Z,96.19
2023-04-26T01:07:04.142Z,97.01
2023-04-26T01:09:31.857Z,98.44
2023-04-26T01:11:58.617Z,96.95
2023-04-26T01:14:25.183Z,100.00
2023-04-26T01:16:52.425Z,99.08
2023-04-26T01:19:18.978Z,98.38
2023-04-26T01:24:14.108Z,98.03
2023-04-26T01:26:45.576Z,95.72
2023-04-26T01:29:21.977Z,97.92
2023-04-26T01:31:48.850Z,100.00
2023-04-26T01:34:15.900Z,98.38
2023-04-26T01:36:42.732Z,97.19
2023-04-26T01:39:09.498Z,98.45
2023-04-26T01:41:35.897Z,96.49
2023-04-26T01:44:02.402Z,97.52
2023-04-26T01:46:28.857Z,100.00
2023-04-26T01:48:55.446Z,100.00
2023-04-26T01:51:21.858Z,100.00
2023-04-26T01:53:48.297Z,100.00
2023-04-26T01:56:14.631Z,100.00
2023-04-26T01:58:41.171Z,100.00
2023-04-26T02:01:09.225Z,99.84
2023-04-26T02:03:36.036Z,100.00
2023-04-26T02:06:02.718Z,100.00
2023-04-26T02:08:29.930Z,99.90
2023-04-26T02:10:56.354Z,100.00
2023-04-26T02:13:22.852Z,100.00
2023-04-26T02:15:49.948Z,97.84
2023-04-26T02:18:17.610Z,91.99
2023-04-26T02:20:44.925Z,95.09
2023-04-26T02:23:11.702Z,98.32
2023-04-26T02:25:39.436Z,98.48
2023-04-26T02:28:06.310Z,97.35
2023-04-26T02:30:32.748Z,100.00
2023-04-26T02:32:59.290Z,100.00
2023-04-26T02:35:25.804Z,100.00
2023-04-26T02:37:52.439Z,100.00
2023-04-26T02:40:19.106Z,100.00
2023-04-26T02:42:45.541Z,100.00
2023-04-26T02:45:12.128Z,100.00
2023-04-26T02:47:38.837Z,100.00
2023-04-26T02:50:06.547Z,100.00
2023-04-26T02:52:33.203Z,100.00
2023-04-26T02:54:59.622Z,100.00
2023-04-26T02:57:26.015Z,100.00
2023-04-26T02:59:52.482Z,100.00
2023-04-26T03:02:19.166Z,100.00
2023-04-26T03:04:46.629Z,100.00
2023-04-26T03:07:13.311Z,100.00
2023-04-26T03:09:39.810Z,100.00
2023-04-26T03:12:09.538Z,100.00
2023-04-26T03:14:36.425Z,100.00
2023-04-26T03:17:03.020Z,100.00
2023-04-26T03:19:29.578Z,100.00
2023-04-26T03:21:56.760Z,100.00
2023-04-26T03:24:24.102Z,100.00
2023-04-26T03:26:51.568Z,100.00
2023-04-26T03:29:18.154Z,100.00
2023-04-26T03:31:44.589Z,100.00
2023-04-26T03:34:11.596Z,100.00
2023-04-26T03:36:38.485Z,100.00
2023-04-26T03:39:06.183Z,100.00
2023-04-26T03:41:36.941Z,100.00
2023-04-26T03:44:03.512Z,100.00
2023-04-26T03:46:29.941Z,100.00
2023-04-26T03:48:57.474Z,100.00
2023-04-26T03:51:23.860Z,100.00
2023-04-26T03:53:51.089Z,100.00
2023-04-26T03:56:17.473Z,100.00
2023-04-26T03:58:43.858Z,100.00
2023-04-26T04:01:10.304Z,100.00
2023-04-26T04:03:38.608Z,100.00
2023-04-26T04:06:07.302Z,100.00
2023-04-26T04:08:35.027Z,100.00
2023-04-26T04:11:02.427Z,100.00
2023-04-26T04:13:28.924Z,100.00
2023-04-26T04:15:55.354Z,100.00
2023-04-26T04:18:21.783Z,100.00
2023-04-26T04:20:48.226Z,100.00
2023-04-26T04:23:14.667Z,100.00
2023-04-26T04:25:41.215Z,100.00
2023-04-26T04:28:08.590Z,100.00
2023-04-26T04:30:35.683Z,100.00
2023-04-26T04:33:02.672Z,100.00
2023-04-26T04:35:33.424Z,100.00
2023-04-26T04:38:01.686Z,100.00
2023-04-26T04:40:28.105Z,100.00
2023-04-26T04:42:55.616Z,100.00
2023-04-26T04:45:22.165Z,100.00
2023-04-26T04:47:48.707Z,100.00
2023-04-26T04:50:15.236Z,100.00
2023-04-26T04:52:42.557Z,100.00
2023-04-26T04:55:16.692Z,100.00
2023-04-26T04:57:43.346Z,100.00
2023-04-26T05:00:10.394Z,100.00
2023-04-26T05:02:37.330Z,100.00
2023-04-26T05:05:04.984Z,100.00
2023-04-26T05:07:32.381Z,91.03
2023-04-26T05:09:58.919Z,83.54
2023-04-26T05:12:25.634Z,80.29
2023-04-26T05:14:52.127Z,77.05
2023-04-26T05:17:18.593Z,74.85
2023-04-26T05:19:45.569Z,72.37
2023-04-26T05:22:18.020Z,65.99
2023-04-26T05:24:47.665Z,66.76
2023-04-26T05:27:14.610Z,63.94
2023-04-26T05:29:41.547Z,60.74
2023-04-26T05:32:08.092Z,58.31
2023-04-26T05:34:34.611Z,57.42
2023-04-26T05:37:01.174Z,56.55
2023-04-26T05:39:27.536Z,54.86
2023-04-26T05:41:54.317Z,54.18
2023-04-26T05:44:20.799Z,53.57
2023-04-26T05:46:47.533Z,52.64
2023-04-26T05:49:26.382Z,54.34
2023-04-26T05:51:52.776Z,57.59
2023-04-26T05:54:19.156Z,55.99
2023-04-26T05:56:46.392Z,53.56
2023-04-26T05:59:13.655Z,52.72
2023-04-26T06:01:40.058Z,52.02
2023-04-26T06:04:06.964Z,51.74
2023-04-26T06:06:33.981Z,51.28
2023-04-26T06:09:00.494Z,50.13
2023-04-26T06:11:27.428Z,49.01
2023-04-26T06:14:03.013Z,49.01
2023-04-26T06:16:29.600Z,49.98
2023-04-26T06:18:56.045Z,47.63
2023-04-26T06:21:22.454Z,49.23
2023-04-26T06:23:48.863Z,48.03
2023-04-26T06:26:15.360Z,47.33
2023-04-26T06:28:42.366Z,49.18
2023-04-26T06:31:08.910Z,46.47
2023-04-26T06:33:35.427Z,45.59
2023-04-26T06:36:01.822Z,46.33
2023-04-26T06:38:29.003Z,45.86
2023-04-26T06:40:55.388Z,46.77
2023-04-26T06:43:22.812Z,46.10
2023-04-26T06:45:49.191Z,45.01
2023-04-26T06:48:15.573Z,45.98
2023-04-26T06:50:42.276Z,44.22
2023-04-26T06:53:08.688Z,43.73
2023-04-26T06:55:35.168Z,45.46
2023-04-26T06:58:01.544Z,42.45
2023-04-26T07:00:28.523Z,43.36
2023-04-26T07:02:54.992Z,43.59
2023-04-26T07:05:21.800Z,42.35
2023-04-26T07:07:48.534Z,43.72
2023-04-26T07:10:14.921Z,41.03
2023-04-26T07:12:41.327Z,41.30
2023-04-26T07:15:08.317Z,41.08
2023-04-26T07:17:34.785Z,39.52
2023-04-26T07:20:01.254Z,40.55
2023-04-26T07:22:27.789Z,42.67
2023-04-26T07:24:54.242Z,38.41
2023-04-26T07:27:20.707Z,42.28
2023-04-26T07:29:48.158Z,41.87
2023-04-26T07:32:15.000Z,41.75
2023-04-26T07:34:41.987Z,40.77
2023-04-26T07:37:08.340Z,39.94
2023-04-26T07:39:35.288Z,37.87
2023-04-26T07:42:01.705Z,35.78
2023-04-26T07:44:28.153Z,38.62
2023-04-26T07:46:54.670Z,38.62
2023-04-26T07:49:21.021Z,38.08
2023-04-26T07:51:48.986Z,39.06
2023-04-26T07:54:15.410Z,39.54
2023-04-26T07:56:41.835Z,40.91
2023-04-26T07:59:08.509Z,42.22
2023-04-26T08:01:34.901Z,40.05
2023-04-26T08:04:01.766Z,41.43
2023-04-26T08:06:29.384Z,40.58
2023-04-26T08:08:55.830Z,40.62
2023-04-26T08:11:22.340Z,41.43
2023-04-26T08:13:48.892Z,42.17
2023-04-26T08:16:15.521Z,39.59
2023-04-26T08:18:43.976Z,40.22
2023-04-26T08:21:12.056Z,38.87
2023-04-26T08:23:38.462Z,39.72
2023-04-26T08:26:04.876Z,40.60
2023-04-26T08:28:31.540Z,39.39
2023-04-26T08:30:58.295Z,37.46
2023-04-26T08:33:25.008Z,34.38
2023-04-26T08:35:51.593Z,36.00
2023-04-26T08:38:19.137Z,36.47
2023-04-26T08:40:46.773Z,38.32
2023-04-26T08:43:14.698Z,38.91
2023-04-26T08:45:41.621Z,40.75
2023-04-26T08:48:11.826Z,41.77
2023-04-26T08:50:38.789Z,42.08
2023-04-26T08:53:05.986Z,42.27
2023-04-26T08:55:33.603Z,41.67
2023-04-26T08:58:00.846Z,42.80
2023-04-26T09:00:27.428Z,42.87
2023-04-26T09:02:54.068Z,43.61
2023-04-26T09:05:24.799Z,42.70
2023-04-26T09:07:53.557Z,42.55
2023-04-26T09:10:23.812Z,43.86
2023-04-26T09:12:51.539Z,41.45
2023-04-26T09:15:18.261Z,42.18
2023-04-26T09:17:45.995Z,40.85
2023-04-26T09:20:18.549Z,41.91
2023-04-26T09:22:45.780Z,42.33
2023-04-26T09:25:13.558Z,42.14
2023-04-26T09:27:41.369Z,42.25
2023-04-26T09:30:09.638Z,41.91
2023-04-26T09:32:45.419Z,42.46
2023-04-26T09:35:36.513Z,42.98
2023-04-26T09:38:12.289Z,43.02
2023-04-26T09:40:43.106Z,44.17
2023-04-26T09:43:14.305Z,41.32
2023-04-26T09:46:07.163Z,40.42
2023-04-26T09:48:35.633Z,40.54
2023-04-26T09:51:04.866Z,41.18
2023-04-26T09:53:34.301Z,39.62
2023-04-26T09:56:10.625Z,40.07
2023-04-26T09:58:58.669Z,39.78
2023-04-26T10:01:25.832Z,41.99
2023-04-26T10:03:52.800Z,41.56
2023-04-26T10:06:19.827Z,40.93
2023-04-26T10:08:46.257Z,41.17
2023-04-26T10:11:12.938Z,40.77
2023-04-26T10:13:40.068Z,40.67
2023-04-26T10:16:28.350Z,39.41
2023-04-26T10:18:55.037Z,37.90
2023-04-26T10:21:26.683Z,36.05
2023-04-26T10:23:53.482Z,37.96
2023-04-26T10:26:53.080Z,38.86
2023-04-26T10:29:25.762Z,39.82
2023-04-26T10:32:04.554Z,36.99
2023-04-26T10:34:31.824Z,36.25
2023-04-26T10:37:08.862Z,37.89
2023-04-26T10:39:36.641Z,36.07
2023-04-26T10:42:26.060Z,37.24
2023-04-26T10:44:53.986Z,35.83
2023-04-26T10:47:26.087Z,36.44
2023-04-26T10:49:52.633Z,39.27
2023-04-26T10:52:23.275Z,35.06
2023-04-26T10:54:51.063Z,34.34
2023-04-26T10:57:18.024Z,35.47
2023-04-26T11:00:13.814Z,37.70
2023-04-26T11:02:48.314Z,34.94
2023-04-26T11:05:44.158Z,35.22
2023-04-26T11:08:18.033Z,37.56
2023-04-26T11:10:46.582Z,36.07
2023-04-26T11:13:13.032Z,35.02
2023-04-26T11:15:39.480Z,37.72
2023-04-26T11:18:06.128Z,36.01
2023-04-26T11:20:33.267Z,39.64
2023-04-26T11:22:59.938Z,36.16
2023-04-26T11:25:28.349Z,36.33
2023-04-26T11:28:02.015Z,34.43
2023-04-26T11:30:32.196Z,36.19
2023-04-26T11:32:59.348Z,36.88
2023-04-26T11:35:26.302Z,38.00
2023-04-26T11:37:52.781Z,34.77
2023-04-26T11:40:19.355Z,35.92
2023-04-26T11:42:46.012Z,33.77
2023-04-26T11:45:12.590Z,37.30
2023-04-26T11:47:39.490Z,34.99
2023-04-26T11:50:06.769Z,34.65
2023-04-26T11:52:33.335Z,35.00
2023-04-26T11:55:04.386Z,35.50
2023-04-26T11:57:32.434Z,34.26
2023-04-26T12:00:14.861Z,34.79
2023-04-26T12:02:48.076Z,33.93
2023-04-26T12:05:21.387Z,34.96
2023-04-26T12:07:52.656Z,35.45
2023-04-26T12:10:20.547Z,34.54
2023-04-26T12:12:54.705Z,34.72
2023-04-26T12:15:25.638Z,35.45
2023-04-26T12:18:06.474Z,34.11
2023-04-26T12:20:35.406Z,32.51
2023-04-26T12:23:08.303Z,33.96
2023-04-26T12:25:35.711Z,35.53
2023-04-26T12:28:03.715Z,36.43
2023-04-26T12:30:30.378Z,33.92
2023-04-26T12:33:05.692Z,34.14
2023-04-26T12:35:41.912Z,34.50
2023-04-26T12:38:08.343Z,34.54
2023-04-26T12:40:34.738Z,37.11
2023-04-26T12:43:01.139Z,35.59
2023-04-26T12:45:29.560Z,35.00
2023-04-26T12:47:56.516Z,34.88
2023-04-26T12:50:22.983Z,35.05
2023-04-26T12:52:49.397Z,34.60
2023-04-26T12:55:16.099Z,36.93
2023-04-26T12:57:43.628Z,37.18
2023-04-26T13:00:11.709Z,36.00
2023-04-26T13:02:38.492Z,36.21
2023-04-26T13:05:06.617Z,36.54
2023-04-26T13:07:37.304Z,34.93
2023-04-26T13:10:04.464Z,35.29
2023-04-26T13:12:31.477Z,36.62
2023-04-26T13:14:58.870Z,35.25
2023-04-26T13:17:26.520Z,35.62
2023-04-26T13:19:53.412Z,36.43
2023-04-26T13:22:20.262Z,35.00
2023-04-26T13:24:46.717Z,36.70
2023-04-26T13:27:13.465Z,34.61
2023-04-26T13:29:40.759Z,33.58
2023-04-26T13:32:08.288Z,36.06
2023-04-26T13:34:35.080Z,34.13
2023-04-26T13:37:03.849Z,34.62
2023-04-26T13:39:30.944Z,34.27
2023-04-26T13:41:58.810Z,35.39
2023-04-26T13:44:28.534Z,34.27
2023-04-26T13:46:56.299Z,34.37
2023-04-26T13:49:23.088Z,38.01
2023-04-26T13:51:49.537Z,36.98
2023-04-26T13:54:17.380Z,36.85
2023-04-26T13:56:43.817Z,37.19
2023-04-26T13:59:10.288Z,37.78
2023-04-26T14:01:56.859Z,34.48
2023-04-26T14:04:24.902Z,36.95
2023-04-26T14:06:52.522Z,36.21
2023-04-26T14:09:18.934Z,37.56
2023-04-26T14:11:47.539Z,38.41
2023-04-26T14:14:20.488Z,35.44
2023-04-26T14:16:47.018Z,35.43
2023-04-26T14:19:15.420Z,33.64
2023-04-26T14:21:42.092Z,35.34
2023-04-26T14:24:08.607Z,35.57
2023-04-26T14:26:35.263Z,32.83
2023-04-26T14:29:02.189Z,35.53
2023-04-26T14:31:30.446Z,38.02
2023-04-26T14:33:56.894Z,37.19
2023-04-26T14:36:23.348Z,36.14
2023-04-26T14:38:49.684Z,36.32
2023-04-26T14:41:16.786Z,35.82
2023-04-26T14:43:43.696Z,36.17
2023-04-26T14:46:10.152Z,37.00
2023-04-26T14:48:37.572Z,35.62
2023-04-26T14:51:04.062Z,35.87
2023-04-26T14:53:30.456Z,36.24
2023-04-26T14:56:00.660Z,35.41
2023-04-26T14:58:27.374Z,36.22
2023-04-26T15:00:54.008Z,35.23
2023-04-26T15:03:21.056Z,33.87
2023-04-26T15:05:47.570Z,36.40
2023-04-26T15:08:14.553Z,36.06
2023-04-26T15:10:40.955Z,37.38
2023-04-26T15:13:07.352Z,35.26
2023-04-26T15:15:34.137Z,35.48
2023-04-26T15:18:00.902Z,34.80
2023-04-26T15:20:27.514Z,35.75
2023-04-26T15:22:53.946Z,35.73
2023-04-26T15:25:20.329Z,36.77
2023-04-26T15:27:47.033Z,34.37
2023-04-26T15:30:17.280Z,36.09
2023-04-26T15:32:47.126Z,34.93
2023-04-26T15:35:15.190Z,34.65
2023-04-26T15:37:41.973Z,34.53
2023-04-26T15:40:11.133Z,37.00
2023-04-26T15:42:37.578Z,34.14
2023-04-26T15:45:04.125Z,36.42
2023-04-26T15:47:30.620Z,37.24
2023-04-26T15:50:01.880Z,36.57
2023-04-26T15:52:29.374Z,36.84
2023-04-26T15:54:55.776Z,36.52
2023-04-26T15:57:22.282Z,37.20
2023-04-26T15:59:48.971Z,36.37
2023-04-26T16:02:15.405Z,36.91
2023-04-26T16:04:43.170Z,36.63
2023-04-26T16:07:09.616Z,37.77
2023-04-26T16:09:36.627Z,36.52
2023-04-26T16:12:03.667Z,34.53
2023-04-26T16:14:31.371Z,35.66
2023-04-26T16:17:00.749Z,35.42
2023-04-26T16:19:27.297Z,36.25
2023-04-26T16:21:54.097Z,34.35
2023-04-26T16:24:20.437Z,36.35
2023-04-26T16:26:47.066Z,37.05
2023-04-26T16:29:13.946Z,35.76
2023-04-26T16:31:41.405Z,35.20
2023-04-26T16:34:07.952Z,35.49
2023-04-26T16:36:35.510Z,35.69
2023-04-26T16:39:01.969Z,36.51
2023-04-26T16:41:28.349Z,37.25
2023-04-26T16:43:56.106Z,36.33
2023-04-26T16:46:23.456Z,35.71
2023-04-26T16:48:55.536Z,36.26
2023-04-26T16:51:24.574Z,36.85
2023-04-26T16:53:50.987Z,38.68
2023-04-26T16:56:17.474Z,38.30
2023-04-26T16:58:43.948Z,37.57
2023-04-26T17:01:10.907Z,37.77
2023-04-26T17:03:37.545Z,38.31
2023-04-26T17:06:06.615Z,38.07
2023-04-26T17:08:33.006Z,39.37
2023-04-26T17:11:01.371Z,37.70
2023-04-26T17:13:29.889Z,38.60
2023-04-26T17:15:56.411Z,39.23
2023-04-26T17:18:22.832Z,39.72
2023-04-26T17:20:53.419Z,38.66
2023-04-26T17:23:20.106Z,38.53
2023-04-26T17:25:46.906Z,39.01
2023-04-26T17:28:14.245Z,39.43
2023-04-26T17:30:41.322Z,39.59
2023-04-26T17:33:07.865Z,40.85
2023-04-26T17:35:34.395Z,40.26
2023-04-26T17:38:00.858Z,40.39
2023-04-26T17:40:27.239Z,38.96
2023-04-26T17:42:53.673Z,41.15
2023-04-26T17:45:20.118Z,40.50
2023-04-26T17:47:48.582Z,41.27
2023-04-26T17:50:15.774Z,41.76
2023-04-26T17:52:42.611Z,42.26
2023-04-26T17:55:10.076Z,43.98
2023-04-26T17:57:36.895Z,45.19
2023-04-26T18:00:04.067Z,45.21
2023-04-26T18:02:30.582Z,45.55
2023-04-26T18:04:58.151Z,46.80
2023-04-26T18:10:54.050Z,48.16
2023-04-26T18:13:21.057Z,46.22
2023-04-26T18:15:47.806Z,50.37
2023-04-26T18:18:14.297Z,50.26
2023-04-26T18:20:40.748Z,47.52
2023-04-26T18:23:07.163Z,49.67
2023-04-26T18:25:33.799Z,49.74
2023-04-26T18:28:00.215Z,49.88
2023-04-26T18:30:26.946Z,50.76
2023-04-26T18:32:53.525Z,51.78
2023-04-26T18:35:20.789Z,50.12
2023-04-26T18:37:48.016Z,49.75
2023-04-26T18:40:14.807Z,49.42
2023-04-26T18:42:42.021Z,49.34
2023-04-26T18:45:09.619Z,51.07
2023-04-26T18:47:37.090Z,52.11
2023-04-26T18:50:04.271Z,50.53
2023-04-26T18:52:30.689Z,53.08
2023-04-26T18:54:57.270Z,52.96
2023-04-26T18:57:25.733Z,52.48
2023-04-26T18:59:52.221Z,52.47
2023-04-26T19:02:18.657Z,52.61
2023-04-26T19:04:46.898Z,53.36
2023-04-26T19:07:14.584Z,53.22
2023-04-26T19:09:53.045Z,52.73
2023-04-26T19:12:20.935Z,54.54
2023-04-26T19:14:47.375Z,55.56
2023-04-26T19:17:14.842Z,55.57
2023-04-26T19:19:41.823Z,56.61
2023-04-26T19:22:08.213Z,56.08
2023-04-26T19:24:34.626Z,56.73
2023-04-26T19:27:01.356Z,57.40
2023-04-26T19:29:27.773Z,56.04
2023-04-26T19:31:54.235Z,55.15
2023-04-26T19:34:21.904Z,56.70
2023-04-26T19:36:50.287Z,55.71
2023-04-26T19:39:16.879Z,56.02
2023-04-26T19:41:43.541Z,55.00
2023-04-26T19:44:09.970Z,58.06
2023-04-26T19:46:36.957Z,57.34
2023-04-26T19:49:03.614Z,57.36
2023-04-26T19:51:34.104Z,56.30
2023-04-26T19:54:00.505Z,58.20
2023-04-26T19:56:26.881Z,58.33
2023-04-26T19:58:53.307Z,59.72
2023-04-26T20:01:19.890Z,60.04
2023-04-26T20:03:46.368Z,59.96
2023-04-26T20:06:14.036Z,61.47
2023-04-26T20:08:41.169Z,60.85
2023-04-26T20:11:10.776Z,62.15
2023-04-26T20:13:37.146Z,61.33
2023-04-26T20:16:03.760Z,62.54
2023-04-26T20:18:30.165Z,63.79
2023-04-26T20:20:56.604Z,63.78
2023-04-26T20:23:23.337Z,66.54
2023-04-26T20:25:50.710Z,62.74
2023-04-26T20:28:17.217Z,62.86
2023-04-26T20:30:43.551Z,63.57
2023-04-26T20:33:10.160Z,64.56
2023-04-26T20:35:36.578Z,64.54
2023-04-26T20:38:04.979Z,67.68
2023-04-26T20:40:32.207Z,66.65
2023-04-26T20:42:58.774Z,69.11
2023-04-26T20:45:25.354Z,67.05
2023-04-26T20:47:51.777Z,68.57
2023-04-26T20:50:18.250Z,68.68
2023-04-26T20:52:47.115Z,70.62
2023-04-26T20:55:13.627Z,71.28
2023-04-26T20:57:40.062Z,69.70
2023-04-26T21:00:07.507Z,69.60
2023-04-26T21:02:34.706Z,70.21
2023-04-26T21:05:01.332Z,70.06
2023-04-26T21:07:28.087Z,70.46
2023-04-26T21:09:54.501Z,72.09
2023-04-26T21:12:21.532Z,75.90
2023-04-26T21:14:48.138Z,75.62
2023-04-26T21:17:14.909Z,76.94
2023-04-26T21:19:41.472Z,75.77
2023-04-26T21:22:09.798Z,74.83
2023-04-26T21:24:36.731Z,75.27
2023-04-26T21:27:03.363Z,81.87
2023-04-26T21:29:29.904Z,76.99
2023-04-26T21:31:56.329Z,74.05
2023-04-26T21:34:22.886Z,73.48
2023-04-26T21:36:50.582Z,73.27
2023-04-26T21:39:18.106Z,76.70
2023-04-26T21:41:44.518Z,80.34
2023-04-26T21:44:11.227Z,80.41
2023-04-26T21:46:37.749Z,78.80
2023-04-26T21:49:04.199Z,79.86
2023-04-26T21:51:31.295Z,81.79
2023-04-26T21:53:57.733Z,83.04
2023-04-26T21:56:24.192Z,83.96
2023-04-26T21:58:50.635Z,83.50
2023-04-26T22:01:17.290Z,84.58
2023-04-26T22:03:43.939Z,85.55
2023-04-26T22:06:11.024Z,84.70
2023-04-26T22:08:37.833Z,88.91
2023-04-26T22:11:04.382Z,91.28
2023-04-26T22:13:31.329Z,94.51
2023-04-26T22:15:57.780Z,91.19
2023-04-26T22:18:25.924Z,94.88
2023-04-26T22:20:53.475Z,89.92
2023-04-26T22:23:20.025Z,90.07
2023-04-26T22:25:46.424Z,88.49
2023-04-26T22:28:13.607Z,89.71
2023-04-26T22:30:40.968Z,89.60
2023-04-26T22:33:07.575Z,89.30
2023-04-26T22:35:34.929Z,88.54
2023-04-26T22:38:01.369Z,90.91
2023-04-26T22:40:33.777Z,91.78
2023-04-26T22:43:00.218Z,93.09
2023-04-26T22:45:28.675Z,91.71
2023-04-26T22:47:55.124Z,92.35
2023-04-26T22:50:21.672Z,92.99
2023-04-26T22:52:48.151Z,93.41
2023-04-26T22:55:14.552Z,93.54
2023-04-26T22:57:41.012Z,93.69
2023-04-26T23:00:10.195Z,93.08
2023-04-26T23:02:36.743Z,93.88
2023-04-26T23:05:05.198Z,94.01
2023-04-26T23:07:33.050Z,92.36
2023-04-26T23:09:59.400Z,90.99
2023-04-26T23:12:25.844Z,93.99
2023-04-26T23:14:52.197Z,94.99
2023-04-26T23:17:20.523Z,100.00
2023-04-26T23:19:48.019Z,100.00
2023-04-26T23:22:15.666Z,100.00
2023-04-26T23:24:42.022Z,97.58
2023-04-26T23:27:08.435Z,98.48
2023-04-26T23:29:34.873Z,100.00
2023-04-26T23:32:01.256Z,95.29
2023-04-26T23:34:27.689Z,95.26
2023-04-26T23:36:54.128Z,97.67
2023-04-26T23:39:20.926Z,100.00
2023-04-26T23:41:47.336Z,100.00
2023-04-26T23:44:13.769Z,98.81
2023-04-26T23:46:40.250Z,96.52
2023-04-26T23:49:06.701Z,96.64
2023-04-26T23:51:33.276Z,100.00
2023-04-26T23:53:59.664Z,100.00
2023-04-26T23:56:26.143Z,99.93
2023-04-26T23:58:52.593Z,98.98
